sensor_id;sensor_type;location;lat;lon;timestamp;P1;P2;P0
66155;PMS5003;52957;50.848;20.656;2023-12-29T00:00:04;69;54;33
66155;PMS5003;52957;50.848;20.656;2023-12-29T00:10:09;56;46;28
66155;PMS5003;52957;50.848;20.656;2023-12-29T00:20:12;56;46;28
66155;PMS5003;52957;50.848;20.656;2023-12-29T00:30:15;56;46;28
66155;PMS5003;52957;50.848;20.656;2023-12-29T00:40:15;61;49;30
66155;PMS5003;52957;50.848;20.656;2023-12-29T00:50:09;61;49;30
66155;PMS5003;52957;50.848;20.656;2023-12-29T01:00:18;61;49;30
66155;PMS5003;52957;50.848;20.656;2023-12-29T01:10:08;72;56;34
66155;PMS5003;52957;50.848;20.656;2023-12-29T01:20:09;72;56;34
66155;PMS5003;52957;50.848;20.656;2023-12-29T01:30:03;72;56;34
66155;PMS5003;52957;50.848;20.656;2023-12-29T01:40:02;102;93;54
66155;PMS5003;52957;50.848;20.656;2023-12-29T01:50:02;102;93;54
66155;PMS5003;52957;50.848;20.656;2023-12-29T02:00:13;102;93;54
66155;PMS5003;52957;50.848;20.656;2023-12-29T02:10:19;118;101;55
66155;PMS5003;52957;50.848;20.656;2023-12-29T02:20:12;118;101;55
66155;PMS5003;52957;50.848;20.656;2023-12-29T02:30:37;118;101;55
66155;PMS5003;52957;50.848;20.656;2023-12-29T02:40:17;104;94;52
66155;PMS5003;52957;50.848;20.656;2023-12-29T02:50:06;104;94;52
66155;PMS5003;52957;50.848;20.656;2023-12-29T03:10:02;89;78;48
66155;PMS5003;52957;50.848;20.656;2023-12-29T03:20:15;89;78;48
66155;PMS5003;52957;50.848;20.656;2023-12-29T03:30:05;89;78;48
66155;PMS5003;52957;50.848;20.656;2023-12-29T03:40:02;70;54;32
66155;PMS5003;52957;50.848;20.656;2023-12-29T03:50:14;70;54;32
66155;PMS5003;52957;50.848;20.656;2023-12-29T04:00:02;70;54;32
66155;PMS5003;52957;50.848;20.656;2023-12-29T04:10:10;48;39;25
66155;PMS5003;52957;50.848;20.656;2023-12-29T04:20:08;48;39;25
66155;PMS5003;52957;50.848;20.656;2023-12-29T04:30:02;48;39;25
66155;PMS5003;52957;50.848;20.656;2023-12-29T04:40:02;44;38;21
66155;PMS5003;52957;50.848;20.656;2023-12-29T04:50:13;44;38;21
66155;PMS5003;52957;50.848;20.656;2023-12-29T05:00:19;44;38;21
66155;PMS5003;52957;50.848;20.656;2023-12-29T05:10:05;46;39;23
66155;PMS5003;52957;50.848;20.656;2023-12-29T05:20:12;46;39;23
66155;PMS5003;52957;50.848;20.656;2023-12-29T05:30:18;46;39;23
66155;PMS5003;52957;50.848;20.656;2023-12-29T05:40:02;39;35;20
66155;PMS5003;52957;50.848;20.656;2023-12-29T05:50:10;39;35;20
66155;PMS5003;52957;50.848;20.656;2023-12-29T06:00:17;39;35;20
66155;PMS5003;52957;50.848;20.656;2023-12-29T06:10:02;42;36;21
66155;PMS5003;52957;50.848;20.656;2023-12-29T06:20:01;42;36;21
66155;PMS5003;52957;50.848;20.656;2023-12-29T06:30:01;42;36;21
66155;PMS5003;52957;50.848;20.656;2023-12-29T06:40:02;48;38;22
66155;PMS5003;52957;50.848;20.656;2023-12-29T06:50:17;48;38;22
66155;PMS5003;52957;50.848;20.656;2023-12-29T07:00:05;48;38;22
66155;PMS5003;52957;50.848;20.656;2023-12-29T07:10:15;38;35;21
66155;PMS5003;52957;50.848;20.656;2023-12-29T07:20:02;38;35;21
66155;PMS5003;52957;50.848;20.656;2023-12-29T07:30:13;38;35;21
66155;PMS5003;52957;50.848;20.656;2023-12-29T07:40:13;36;32;19
66155;PMS5003;52957;50.848;20.656;2023-12-29T07:50:06;36;32;19
66155;PMS5003;52957;50.848;20.656;2023-12-29T08:00:07;36;32;19
66155;PMS5003;52957;50.848;20.656;2023-12-29T08:10:24;27;24;13
66155;PMS5003;52957;50.848;20.656;2023-12-29T08:20:13;27;24;13
66155;PMS5003;52957;50.848;20.656;2023-12-29T08:30:09;27;24;13
66155;PMS5003;52957;50.848;20.656;2023-12-29T08:40:07;25;23;11
66155;PMS5003;52957;50.848;20.656;2023-12-29T08:50:09;25;23;11
66155;PMS5003;52957;50.848;20.656;2023-12-29T09:00:19;25;23;11
66155;PMS5003;52957;50.848;20.656;2023-12-29T09:10:09;28;27;14
66155;PMS5003;52957;50.848;20.656;2023-12-29T09:20:11;28;27;14
66155;PMS5003;52957;50.848;20.656;2023-12-29T09:30:09;28;27;14
66155;PMS5003;52957;50.848;20.656;2023-12-29T09:50:02;22;20;11
66155;PMS5003;52957;50.848;20.656;2023-12-29T10:00:05;22;20;11
66155;PMS5003;52957;50.848;20.656;2023-12-29T10:10:17;24;24;12
66155;PMS5003;52957;50.848;20.656;2023-12-29T10:20:48;24;24;12
66155;PMS5003;52957;50.848;20.656;2023-12-29T10:30:12;24;24;12
66155;PMS5003;52957;50.848;20.656;2023-12-29T10:40:26;21;20;12
66155;PMS5003;52957;50.848;20.656;2023-12-29T10:50:02;21;20;12
66155;PMS5003;52957;50.848;20.656;2023-12-29T11:00:13;21;20;12
66155;PMS5003;52957;50.848;20.656;2023-12-29T11:10:10;24;23;10
66155;PMS5003;52957;50.848;20.656;2023-12-29T11:20:03;24;23;10
66155;PMS5003;52957;50.848;20.656;2023-12-29T11:30:03;24;23;10
66155;PMS5003;52957;50.848;20.656;2023-12-29T11:40:29;14;12;8
66155;PMS5003;52957;50.848;20.656;2023-12-29T11:50:17;14;12;8
66155;PMS5003;52957;50.848;20.656;2023-12-29T12:00:02;14;12;8
66155;PMS5003;52957;50.848;20.656;2023-12-29T12:10:28;20;19;10
66155;PMS5003;52957;50.848;20.656;2023-12-29T12:20:14;20;19;10
66155;PMS5003;52957;50.848;20.656;2023-12-29T12:30:01;20;19;10
66155;PMS5003;52957;50.848;20.656;2023-12-29T12:40:27;16;15;10
66155;PMS5003;52957;50.848;20.656;2023-12-29T12:50:13;16;15;10
66155;PMS5003;52957;50.848;20.656;2023-12-29T13:00:06;16;15;10
66155;PMS5003;52957;50.848;20.656;2023-12-29T13:10:07;22;21;12
66155;PMS5003;52957;50.848;20.656;2023-12-29T13:20:13;22;21;12
66155;PMS5003;52957;50.848;20.656;2023-12-29T13:30:17;22;21;12
66155;PMS5003;52957;50.848;20.656;2023-12-29T13:40:27;16;15;9
66155;PMS5003;52957;50.848;20.656;2023-12-29T13:50:02;16;15;9
66155;PMS5003;52957;50.848;20.656;2023-12-29T14:00:17;16;15;9
66155;PMS5003;52957;50.848;20.656;2023-12-29T14:10:02;17;17;11
66155;PMS5003;52957;50.848;20.656;2023-12-29T14:20:02;17;17;11
66155;PMS5003;52957;50.848;20.656;2023-12-29T14:30:20;17;17;11
66155;PMS5003;52957;50.848;20.656;2023-12-29T14:40:02;28;28;16
66155;PMS5003;52957;50.848;20.656;2023-12-29T14:50:02;28;28;16
66155;PMS5003;52957;50.848;20.656;2023-12-29T15:00:21;28;28;16
66155;PMS5003;52957;50.848;20.656;2023-12-29T15:10:03;21;20;13
66155;PMS5003;52957;50.848;20.656;2023-12-29T15:20:09;21;20;13
66155;PMS5003;52957;50.848;20.656;2023-12-29T15:30:16;21;20;13
66155;PMS5003;52957;50.848;20.656;2023-12-29T15:40:02;28;24;13
66155;PMS5003;52957;50.848;20.656;2023-12-29T15:50:01;28;24;13
66155;PMS5003;52957;50.848;20.656;2023-12-29T16:00:17;28;24;13
66155;PMS5003;52957;50.848;20.656;2023-12-29T16:10:08;25;21;15
66155;PMS5003;52957;50.848;20.656;2023-12-29T16:20:02;25;21;15
66155;PMS5003;52957;50.848;20.656;2023-12-29T16:30:07;25;21;15
66155;PMS5003;52957;50.848;20.656;2023-12-29T16:40:06;28;25;16
66155;PMS5003;52957;50.848;20.656;2023-12-29T16:50:09;28;25;16
66155;PMS5003;52957;50.848;20.656;2023-12-29T17:00:18;28;25;16
66155;PMS5003;52957;50.848;20.656;2023-12-29T17:10:09;29;29;16
66155;PMS5003;52957;50.848;20.656;2023-12-29T17:20:04;29;29;16
66155;PMS5003;52957;50.848;20.656;2023-12-29T17:30:09;29;29;16
66155;PMS5003;52957;50.848;20.656;2023-12-29T17:50:13;38;32;19
66155;PMS5003;52957;50.848;20.656;2023-12-29T18:00:09;38;32;19
66155;PMS5003;52957;50.848;20.656;2023-12-29T18:20:13;31;29;19
66155;PMS5003;52957;50.848;20.656;2023-12-29T18:30:02;31;29;19
66155;PMS5003;52957;50.848;20.656;2023-12-29T18:50:02;39;35;22
66155;PMS5003;52957;50.848;20.656;2023-12-29T19:00:02;39;35;22
66155;PMS5003;52957;50.848;20.656;2023-12-29T19:20:01;33;29;18
66155;PMS5003;52957;50.848;20.656;2023-12-29T19:30:16;33;29;18
66155;PMS5003;52957;50.848;20.656;2023-12-29T19:40:11;33;29;18
66155;PMS5003;52957;50.848;20.656;2023-12-29T19:50:14;36;31;21
66155;PMS5003;52957;50.848;20.656;2023-12-29T20:00:02;36;31;21
66155;PMS5003;52957;50.848;20.656;2023-12-29T20:10:10;36;31;21
66155;PMS5003;52957;50.848;20.656;2023-12-29T20:20:10;31;29;18
66155;PMS5003;52957;50.848;20.656;2023-12-29T20:30:02;31;29;18
66155;PMS5003;52957;50.848;20.656;2023-12-29T20:40:03;31;29;18
66155;PMS5003;52957;50.848;20.656;2023-12-29T20:50:06;32;31;18
66155;PMS5003;52957;50.848;20.656;2023-12-29T21:00:02;32;31;18
66155;PMS5003;52957;50.848;20.656;2023-12-29T21:10:04;32;31;18
66155;PMS5003;52957;50.848;20.656;2023-12-29T21:20:02;30;28;18
66155;PMS5003;52957;50.848;20.656;2023-12-29T21:30:10;30;28;18
66155;PMS5003;52957;50.848;20.656;2023-12-29T21:40:02;30;28;18
66155;PMS5003;52957;50.848;20.656;2023-12-29T21:50:09;54;39;26
66155;PMS5003;52957;50.848;20.656;2023-12-29T22:00:19;54;39;26
66155;PMS5003;52957;50.848;20.656;2023-12-29T22:10:06;54;39;26
66155;PMS5003;52957;50.848;20.656;2023-12-29T22:20:07;30;27;14
66155;PMS5003;52957;50.848;20.656;2023-12-29T22:30:06;30;27;14
66155;PMS5003;52957;50.848;20.656;2023-12-29T22:40:10;30;27;14
66155;PMS5003;52957;50.848;20.656;2023-12-29T22:50:12;28;23;14
66155;PMS5003;52957;50.848;20.656;2023-12-29T23:00:05;28;23;14
66155;PMS5003;52957;50.848;20.656;2023-12-29T23:10:05;17;15;10
66155;PMS5003;52957;50.848;20.656;2023-12-29T23:20:04;17;15;10
66155;PMS5003;52957;50.848;20.656;2023-12-29T23:30:05;17;15;10
66155;PMS5003;52957;50.848;20.656;2023-12-29T23:40:09;35;29;14
66155;PMS5003;52957;50.848;20.656;2023-12-29T23:50:07;35;29;14
